createdAt,value
2023-06-07T00:00:11.406Z,16.86
2023-06-07T00:02:45.017Z,16.70
2023-06-07T00:05:14.698Z,16.52
2023-06-07T00:07:44.478Z,16.39
2023-06-07T00:10:13.575Z,16.27
2023-06-07T00:12:43.451Z,16.18
2023-06-07T00:15:13.474Z,16.15
2023-06-07T00:17:46.793Z,16.08
2023-06-07T00:20:16.410Z,16.04
2023-06-07T00:22:45.737Z,15.92
2023-06-07T00:25:14.767Z,15.83
2023-06-07T00:27:43.557Z,15.78
2023-06-07T00:30:13.227Z,15.79
2023-06-07T00:32:42.194Z,15.84
2023-06-07T00:35:13.585Z,15.83
2023-06-07T00:37:43.640Z,15.88
2023-06-07T00:40:13.155Z,15.98
2023-06-07T00:42:42.245Z,16.14
2023-06-07T00:45:11.957Z,16.29
2023-06-07T00:47:41.410Z,16.44
2023-06-07T00:50:10.994Z,16.59
2023-06-07T00:52:40.443Z,16.68
2023-06-07T00:55:11.174Z,16.80
2023-06-07T00:57:42.624Z,16.86
2023-06-07T01:00:15.322Z,16.99
2023-06-07T01:02:49.070Z,17.15
2023-06-07T01:05:19.327Z,17.31
2023-06-07T01:07:52.205Z,17.45
2023-06-07T01:10:21.379Z,17.65
2023-06-07T01:12:55.949Z,17.81
2023-06-07T01:15:26.306Z,18.04
2023-06-07T01:17:55.678Z,18.41
2023-06-07T01:20:27.554Z,18.90
2023-06-07T01:22:59.601Z,19.70
2023-06-07T01:25:28.670Z,20.62
2023-06-07T01:27:58.568Z,21.25
2023-06-07T01:30:33.125Z,21.75
2023-06-07T01:33:06.647Z,21.73
2023-06-07T01:35:36.608Z,21.70
2023-06-07T01:38:08.692Z,21.57
2023-06-07T01:40:39.710Z,21.57
2023-06-07T01:43:09.874Z,21.58
2023-06-07T01:45:39.321Z,21.55
2023-06-07T01:48:08.750Z,21.77
2023-06-07T01:50:37.719Z,22.25
2023-06-07T01:53:07.843Z,23.09
2023-06-07T01:55:37.769Z,24.07
2023-06-07T01:58:30.896Z,25.18
2023-06-07T02:01:25.067Z,26.32
2023-06-07T02:03:56.585Z,27.32
2023-06-07T02:06:36.318Z,28.45
2023-06-07T02:09:11.663Z,29.41
2023-06-07T02:11:41.974Z,30.12
2023-06-07T02:14:11.805Z,30.62
2023-06-07T02:16:42.290Z,31.31
2023-06-07T02:19:15.714Z,31.88
2023-06-07T02:21:53.748Z,32.31
2023-06-07T02:24:22.634Z,32.73
2023-06-07T02:26:52.479Z,33.00
2023-06-07T02:29:22.700Z,33.29
2023-06-07T02:31:52.269Z,33.40
2023-06-07T02:34:21.162Z,33.45
2023-06-07T02:36:50.076Z,33.53
2023-06-07T02:39:19.050Z,33.89
2023-06-07T02:41:47.974Z,33.89
2023-06-07T02:44:17.015Z,33.74
2023-06-07T02:46:46.441Z,33.94
2023-06-07T02:49:15.411Z,34.20
2023-06-07T02:51:44.840Z,34.32
2023-06-07T02:54:15.217Z,34.80
2023-06-07T02:56:44.242Z,35.23
2023-06-07T02:59:13.318Z,35.20
2023-06-07T03:01:46.599Z,35.19
2023-06-07T03:04:16.716Z,35.42
2023-06-07T03:06:47.969Z,35.69
2023-06-07T03:09:26.663Z,35.90
2023-06-07T03:11:56.092Z,36.08
2023-06-07T03:14:29.043Z,36.47
2023-06-07T03:16:58.351Z,36.98
2023-06-07T03:19:27.303Z,37.25
2023-06-07T03:21:58.863Z,37.66
2023-06-07T03:24:29.946Z,38.28
2023-06-07T03:26:59.255Z,38.85
2023-06-07T03:29:28.896Z,39.38
2023-06-07T03:31:58.248Z,39.36
2023-06-07T03:34:31.453Z,39.45
2023-06-07T03:37:02.490Z,39.46
2023-06-07T03:39:33.325Z,39.34
2023-06-07T03:42:02.651Z,39.70
2023-06-07T03:44:31.747Z,40.12
2023-06-07T03:47:00.832Z,40.25
2023-06-07T03:49:31.618Z,40.31
2023-06-07T03:52:00.745Z,40.73
2023-06-07T03:54:35.303Z,40.58
2023-06-07T03:57:05.754Z,40.22
2023-06-07T03:59:38.478Z,40.17
2023-06-07T04:02:09.050Z,40.30
2023-06-07T04:04:38.604Z,40.54
2023-06-07T04:07:09.350Z,40.85
2023-06-07T04:09:39.268Z,41.23
2023-06-07T04:12:08.527Z,41.80
2023-06-07T04:14:37.729Z,41.73
2023-06-07T04:17:09.629Z,41.29
2023-06-07T04:19:48.196Z,40.51
2023-06-07T04:22:21.788Z,39.93
2023-06-07T04:24:51.842Z,39.69
2023-06-07T04:27:21.102Z,39.58
2023-06-07T04:29:51.096Z,39.79
2023-06-07T04:32:20.520Z,40.06
2023-06-07T04:34:53.381Z,40.59
2023-06-07T04:37:26.595Z,41.14
2023-06-07T04:39:57.432Z,41.55
2023-06-07T04:42:26.935Z,41.76
2023-06-07T04:44:56.028Z,41.95
2023-06-07T04:47:26.713Z,41.93
2023-06-07T04:49:56.767Z,42.17
2023-06-07T04:52:29.207Z,42.23
2023-06-07T04:55:03.265Z,42.05
2023-06-07T04:57:34.470Z,42.17
2023-06-07T05:00:08.094Z,42.38
2023-06-07T05:02:45.817Z,42.51
2023-06-07T05:05:17.636Z,42.37
2023-06-07T05:07:48.556Z,42.18
2023-06-07T05:10:19.241Z,41.72
2023-06-07T05:12:49.582Z,41.32
2023-06-07T05:15:19.567Z,41.19
2023-06-07T05:17:48.511Z,40.92
2023-06-07T05:20:18.280Z,40.84
2023-06-07T05:22:47.493Z,40.85
2023-06-07T05:25:16.446Z,41.02
2023-06-07T05:27:47.080Z,41.26
2023-06-07T05:30:22.092Z,41.21
2023-06-07T05:32:53.318Z,40.93
2023-06-07T05:35:22.428Z,40.80
2023-06-07T05:37:52.054Z,41.15
2023-06-07T05:40:21.812Z,41.73
2023-06-07T05:42:52.000Z,42.50
2023-06-07T05:45:22.189Z,43.40
2023-06-07T05:47:52.381Z,42.92
2023-06-07T05:50:22.666Z,41.94
2023-06-07T05:52:59.077Z,40.87
2023-06-07T05:55:30.160Z,40.51
2023-06-07T05:57:59.309Z,40.75
2023-06-07T06:00:30.316Z,40.85
2023-06-07T06:03:02.685Z,40.77
2023-06-07T06:05:32.099Z,40.83
2023-06-07T06:08:01.271Z,40.94
2023-06-07T06:10:32.443Z,41.16
2023-06-07T06:13:02.759Z,41.38
2023-06-07T06:15:31.792Z,41.63
2023-06-07T06:18:01.013Z,41.89
2023-06-07T06:20:30.020Z,41.86
2023-06-07T06:22:58.979Z,41.54
2023-06-07T06:25:27.919Z,41.26
2023-06-07T06:27:56.967Z,41.06
2023-06-07T06:30:28.060Z,41.12
2023-06-07T06:32:58.928Z,40.42
2023-06-07T06:35:29.465Z,39.37
2023-06-07T06:37:58.477Z,39.46
2023-06-07T06:40:28.362Z,40.34
2023-06-07T06:42:57.415Z,40.86
2023-06-07T06:45:36.115Z,40.97
2023-06-07T06:48:05.768Z,41.10
2023-06-07T06:50:35.058Z,41.67
2023-06-07T06:53:04.687Z,41.91
2023-06-07T06:55:33.608Z,42.13
2023-06-07T06:58:05.798Z,42.05
2023-06-07T07:00:37.432Z,40.39
2023-06-07T07:03:07.485Z,38.30
2023-06-07T07:05:36.682Z,35.80
2023-06-07T07:08:06.211Z,34.34
2023-06-07T07:10:35.157Z,34.15
2023-06-07T07:13:04.278Z,35.51
2023-06-07T07:15:33.262Z,35.86
2023-06-07T07:18:07.216Z,35.45
2023-06-07T07:20:37.938Z,35.37
2023-06-07T07:23:07.087Z,35.64
2023-06-07T07:25:35.935Z,36.85
2023-06-07T07:28:05.058Z,38.11
2023-06-07T07:30:33.994Z,38.65
2023-06-07T07:33:03.134Z,39.25
2023-06-07T07:35:32.220Z,40.01
2023-06-07T07:38:02.513Z,40.45
2023-06-07T07:40:31.884Z,40.42
2023-06-07T07:43:01.357Z,39.80
2023-06-07T07:45:30.231Z,38.59
2023-06-07T07:47:59.137Z,36.10
2023-06-07T07:50:28.356Z,34.12
2023-06-07T07:52:58.427Z,32.75
2023-06-07T07:55:27.593Z,31.82
2023-06-07T07:57:56.691Z,31.21
2023-06-07T08:00:26.803Z,30.82
2023-06-07T08:02:56.522Z,30.21
2023-06-07T08:05:25.535Z,29.75
2023-06-07T08:07:54.722Z,29.36
2023-06-07T08:10:26.767Z,29.26
2023-06-07T08:12:55.766Z,29.06
2023-06-07T08:15:24.758Z,28.74
2023-06-07T08:17:53.784Z,28.52
2023-06-07T08:20:23.165Z,28.28
2023-06-07T08:22:52.214Z,27.65
2023-06-07T08:25:21.204Z,27.07
2023-06-07T08:27:50.600Z,26.61
2023-06-07T08:30:19.666Z,26.28
2023-06-07T08:32:48.811Z,26.19
2023-06-07T08:35:20.117Z,26.12
2023-06-07T08:37:49.048Z,26.05
2023-06-07T08:40:21.282Z,26.31
2023-06-07T08:42:50.449Z,26.81
2023-06-07T08:45:19.741Z,26.88
2023-06-07T08:47:50.219Z,26.84
2023-06-07T08:50:23.893Z,26.93
2023-06-07T08:52:57.183Z,27.18
2023-06-07T08:55:27.429Z,27.23
2023-06-07T08:57:57.241Z,27.29
2023-06-07T09:00:27.571Z,27.23
2023-06-07T09:02:56.782Z,27.22
2023-06-07T09:05:25.786Z,27.34
2023-06-07T09:07:55.031Z,27.48
2023-06-07T09:10:24.050Z,27.62
2023-06-07T09:12:53.215Z,27.76
2023-06-07T09:15:23.452Z,27.79
2023-06-07T09:17:56.719Z,27.72
2023-06-07T09:20:30.585Z,27.76
2023-06-07T09:23:02.645Z,27.83
2023-06-07T09:25:32.310Z,27.69
2023-06-07T09:28:03.519Z,27.54
2023-06-07T09:30:32.820Z,27.38
2023-06-07T09:33:01.820Z,27.25
2023-06-07T09:35:30.919Z,26.94
2023-06-07T09:38:01.215Z,26.75
2023-06-07T09:40:30.367Z,26.62
2023-06-07T09:43:01.259Z,26.49
2023-06-07T09:45:30.755Z,26.56
2023-06-07T09:48:07.179Z,26.55
2023-06-07T09:50:36.340Z,26.47
2023-06-07T09:53:05.442Z,26.23
2023-06-07T09:55:34.366Z,26.05
2023-06-07T09:58:18.983Z,25.93
2023-06-07T10:00:49.317Z,25.80
2023-06-07T10:03:18.494Z,25.71
2023-06-07T10:05:47.526Z,25.75
2023-06-07T10:08:18.188Z,25.77
2023-06-07T10:10:50.509Z,25.77
2023-06-07T10:13:21.929Z,25.71
2023-06-07T10:15:52.341Z,25.41
2023-06-07T10:18:27.978Z,25.09
2023-06-07T10:21:04.299Z,25.03
2023-06-07T10:24:03.550Z,25.00
2023-06-07T10:26:59.479Z,25.01
2023-06-07T10:29:43.583Z,25.10
2023-06-07T10:32:17.710Z,25.13
2023-06-07T10:34:48.401Z,25.14
2023-06-07T10:37:21.886Z,25.02
2023-06-07T10:39:51.528Z,25.00
2023-06-07T10:42:20.731Z,24.98
2023-06-07T10:44:49.906Z,24.96
2023-06-07T10:47:37.045Z,24.99
2023-06-07T10:50:06.687Z,25.04
2023-06-07T10:52:35.912Z,25.17
2023-06-07T10:55:25.750Z,25.24
2023-06-07T10:57:55.439Z,25.36
2023-06-07T11:00:27.519Z,25.45
2023-06-07T11:03:10.201Z,25.50
2023-06-07T11:06:00.530Z,25.53
2023-06-07T11:08:34.498Z,25.52
2023-06-07T11:11:04.906Z,25.49
2023-06-07T11:13:33.888Z,25.36
2023-06-07T11:16:25.672Z,25.21
2023-06-07T11:18:59.280Z,25.11
2023-06-07T11:21:31.881Z,25.07
2023-06-07T11:24:16.379Z,25.05
2023-06-07T11:26:45.872Z,25.01
2023-06-07T11:29:17.268Z,24.90
2023-06-07T11:31:51.730Z,24.80
2023-06-07T11:34:20.820Z,24.68
2023-06-07T11:36:50.301Z,24.52
2023-06-07T11:39:22.089Z,24.38
2023-06-07T11:41:50.997Z,24.25
2023-06-07T11:44:22.937Z,24.15
2023-06-07T11:46:52.141Z,24.12
2023-06-07T11:49:24.694Z,24.08
2023-06-07T11:51:58.758Z,24.02
2023-06-07T11:54:30.866Z,24.03
2023-06-07T11:57:00.745Z,24.08
2023-06-07T11:59:30.168Z,24.11
2023-06-07T12:02:01.703Z,24.12
2023-06-07T12:04:30.924Z,24.14
2023-06-07T12:07:00.070Z,24.12
2023-06-07T12:09:29.233Z,24.13
2023-06-07T12:11:59.279Z,24.11
2023-06-07T12:14:32.509Z,24.10
2023-06-07T12:17:02.595Z,24.12
2023-06-07T12:19:31.782Z,24.11
2023-06-07T12:22:09.675Z,24.08
2023-06-07T12:24:49.338Z,24.09
2023-06-07T12:27:18.462Z,24.08
2023-06-07T12:29:54.745Z,24.03
2023-06-07T12:32:24.543Z,23.93
2023-06-07T12:34:53.480Z,23.91
2023-06-07T12:37:22.351Z,23.86
2023-06-07T12:39:51.372Z,23.79
2023-06-07T12:42:20.610Z,23.70
2023-06-07T12:44:50.636Z,23.59
2023-06-07T12:47:19.472Z,23.53
2023-06-07T12:49:48.751Z,23.41
2023-06-07T12:52:17.857Z,23.36
2023-06-07T12:54:46.836Z,23.24
2023-06-07T12:57:15.782Z,23.13
2023-06-07T12:59:44.631Z,23.07
2023-06-07T13:02:14.925Z,22.99
2023-06-07T13:04:46.571Z,22.91
2023-06-07T13:07:15.817Z,22.84
2023-06-07T13:09:44.947Z,22.72
2023-06-07T13:12:14.111Z,22.62
2023-06-07T13:14:44.262Z,22.51
2023-06-07T13:17:14.906Z,22.35
2023-06-07T13:19:46.130Z,22.27
2023-06-07T13:22:15.477Z,22.05
2023-06-07T13:24:44.560Z,22.03
2023-06-07T13:27:13.518Z,21.92
2023-06-07T13:29:43.385Z,21.81
2023-06-07T13:32:12.606Z,21.70
2023-06-07T13:34:41.548Z,21.63
2023-06-07T13:37:10.856Z,21.52
2023-06-07T13:39:39.776Z,21.42
2023-06-07T13:42:09.194Z,21.34
2023-06-07T13:44:38.203Z,21.28
2023-06-07T13:47:07.960Z,21.22
2023-06-07T13:49:37.646Z,21.14
2023-06-07T13:52:07.186Z,21.05
2023-06-07T13:54:36.649Z,21.02
2023-06-07T13:57:06.381Z,20.97
2023-06-07T13:59:38.149Z,20.89
2023-06-07T14:02:12.911Z,20.82
2023-06-07T14:04:42.536Z,20.75
2023-06-07T14:07:11.557Z,20.75
2023-06-07T14:09:40.480Z,20.71
2023-06-07T14:12:13.326Z,20.68
2023-06-07T14:14:42.240Z,20.65
2023-06-07T14:17:11.196Z,20.61
2023-06-07T14:19:42.481Z,20.57
2023-06-07T14:22:11.593Z,20.54
2023-06-07T14:24:40.458Z,20.54
2023-06-07T14:27:09.479Z,20.54
2023-06-07T14:29:38.336Z,20.48
2023-06-07T14:32:07.709Z,20.46
2023-06-07T14:34:36.620Z,20.37
2023-06-07T14:37:05.704Z,20.34
2023-06-07T14:39:34.631Z,20.27
2023-06-07T14:42:03.707Z,20.26
2023-06-07T14:44:32.665Z,20.21
2023-06-07T14:47:01.917Z,20.17
2023-06-07T14:49:30.862Z,20.14
2023-06-07T14:51:59.805Z,20.12
2023-06-07T14:54:29.012Z,20.10
2023-06-07T14:56:58.103Z,20.08
2023-06-07T14:59:27.019Z,20.07
2023-06-07T15:01:57.001Z,20.05
2023-06-07T15:04:26.273Z,20.03
2023-06-07T15:06:55.149Z,20.01
2023-06-07T15:09:24.751Z,20.00
2023-06-07T15:11:53.704Z,20.00
2023-06-07T15:14:22.580Z,19.95
2023-06-07T15:16:51.617Z,19.93
2023-06-07T15:19:21.009Z,19.89
2023-06-07T15:21:51.385Z,19.83
2023-06-07T15:24:20.485Z,19.75
2023-06-07T15:26:49.476Z,19.72
2023-06-07T15:29:18.471Z,19.69
2023-06-07T15:31:47.640Z,19.65
2023-06-07T15:34:16.905Z,19.61
2023-06-07T15:36:45.807Z,19.57
2023-06-07T15:39:14.752Z,19.52
2023-06-07T15:41:52.202Z,19.49
2023-06-07T15:44:21.760Z,19.42
2023-06-07T15:46:50.992Z,19.37
2023-06-07T15:49:20.150Z,19.34
2023-06-07T15:51:50.528Z,19.27
2023-06-07T15:54:19.391Z,19.25
2023-06-07T15:56:48.476Z,19.21
2023-06-07T15:59:17.388Z,19.16
2023-06-07T16:01:46.989Z,19.16
2023-06-07T16:04:16.946Z,19.19
2023-06-07T16:06:46.618Z,19.23
2023-06-07T16:09:15.466Z,19.28
2023-06-07T16:11:44.707Z,19.25
2023-06-07T16:14:14.379Z,19.20
2023-06-07T16:16:46.131Z,19.14
2023-06-07T16:19:15.182Z,19.01
2023-06-07T16:21:45.207Z,19.05
2023-06-07T16:24:15.986Z,18.98
2023-06-07T16:26:44.955Z,18.95
2023-06-07T16:29:13.957Z,18.91
2023-06-07T16:31:43.581Z,18.85
2023-06-07T16:34:12.615Z,18.78
2023-06-07T16:36:42.251Z,18.72
2023-06-07T16:39:11.414Z,18.57
2023-06-07T16:41:42.238Z,18.54
2023-06-07T16:44:15.161Z,18.46
2023-06-07T16:46:46.727Z,18.40
2023-06-07T16:49:18.102Z,18.40
2023-06-07T16:51:47.055Z,18.41
2023-06-07T16:54:17.534Z,18.37
2023-06-07T16:56:46.448Z,18.34
2023-06-07T16:59:15.364Z,18.30
2023-06-07T17:01:45.251Z,18.27
2023-06-07T17:04:14.291Z,18.22
2023-06-07T17:06:43.302Z,18.14
2023-06-07T17:09:14.548Z,18.10
2023-06-07T17:11:43.399Z,18.05
2023-06-07T17:14:20.577Z,18.02
2023-06-07T17:16:49.546Z,17.96
2023-06-07T17:19:19.293Z,17.89
2023-06-07T17:21:48.611Z,17.88
2023-06-07T17:24:21.175Z,17.81
2023-06-07T17:26:50.320Z,17.75
2023-06-07T17:29:29.355Z,17.73
2023-06-07T17:31:59.524Z,17.70
2023-06-07T17:34:28.747Z,17.67
2023-06-07T17:36:57.689Z,17.62
2023-06-07T17:39:26.661Z,17.55
2023-06-07T17:41:55.513Z,17.48
2023-06-07T17:44:24.730Z,17.39
2023-06-07T17:46:53.848Z,17.33
2023-06-07T17:49:25.557Z,17.27
2023-06-07T17:51:56.785Z,17.24
2023-06-07T17:54:27.619Z,17.15
2023-06-07T17:56:56.673Z,17.16
2023-06-07T17:59:26.415Z,17.09
2023-06-07T18:01:56.500Z,17.05
2023-06-07T18:04:26.873Z,17.03
2023-06-07T18:06:55.836Z,17.01
2023-06-07T18:09:24.906Z,16.97
2023-06-07T18:11:53.809Z,16.93
2023-06-07T18:14:23.756Z,16.88
2023-06-07T18:16:52.640Z,16.81
2023-06-07T18:19:21.658Z,16.76
2023-06-07T18:21:51.955Z,16.77
2023-06-07T18:24:20.902Z,16.76
2023-06-07T18:26:49.785Z,16.80
2023-06-07T18:29:21.837Z,16.79
2023-06-07T18:31:51.329Z,16.72
2023-06-07T18:34:21.209Z,16.66
2023-06-07T18:36:53.383Z,16.65
2023-06-07T18:39:23.549Z,16.61
2023-06-07T18:41:52.838Z,16.58
2023-06-07T18:44:22.021Z,16.54
2023-06-07T18:46:51.111Z,16.44
2023-06-07T18:49:20.108Z,16.43
2023-06-07T18:51:49.140Z,16.41
2023-06-07T18:54:21.296Z,16.35
2023-06-07T18:56:50.386Z,16.33
2023-06-07T18:59:19.343Z,16.21
2023-06-07T19:01:53.132Z,16.26
2023-06-07T19:04:22.601Z,16.21
2023-06-07T19:06:52.278Z,16.18
2023-06-07T19:09:21.289Z,16.19
2023-06-07T19:11:50.166Z,16.26
2023-06-07T19:14:22.138Z,16.31
2023-06-07T19:16:51.104Z,16.32
2023-06-07T19:19:20.029Z,16.30
2023-06-07T19:21:49.082Z,16.32
2023-06-07T19:24:17.935Z,16.33
2023-06-07T19:26:46.935Z,16.33
2023-06-07T19:29:15.875Z,16.35
2023-06-07T19:31:46.694Z,16.35
2023-06-07T19:34:18.012Z,16.36
2023-06-07T19:36:46.936Z,16.37
2023-06-07T19:39:16.644Z,16.34
2023-06-07T19:41:45.639Z,16.32
2023-06-07T19:44:14.677Z,16.30
2023-06-07T19:46:43.627Z,16.17
2023-06-07T19:49:12.536Z,16.19
2023-06-07T19:51:41.553Z,16.17
2023-06-07T19:54:10.729Z,16.11
2023-06-07T19:56:41.087Z,16.10
2023-06-07T19:59:10.060Z,16.11
2023-06-07T20:01:39.719Z,16.05
2023-06-07T20:04:10.833Z,16.01
2023-06-07T20:06:41.153Z,15.95
2023-06-07T20:09:10.109Z,15.86
2023-06-07T20:11:39.126Z,15.85
2023-06-07T20:14:08.102Z,15.80
2023-06-07T20:16:37.191Z,15.77
2023-06-07T20:19:07.844Z,15.79
2023-06-07T20:21:37.765Z,15.79
2023-06-07T20:24:07.181Z,15.79
2023-06-07T20:26:36.215Z,15.70
2023-06-07T20:29:05.057Z,15.69
2023-06-07T20:31:34.111Z,15.71
2023-06-07T20:34:03.149Z,15.70
2023-06-07T20:36:32.033Z,15.67
2023-06-07T20:39:00.902Z,15.68
2023-06-07T20:41:29.818Z,15.70
2023-06-07T20:43:58.712Z,15.68
2023-06-07T20:46:27.958Z,15.68
2023-06-07T20:48:59.471Z,15.67
2023-06-07T20:51:28.695Z,15.64
2023-06-07T20:53:57.750Z,15.61
2023-06-07T20:56:27.934Z,15.58
2023-06-07T20:58:56.811Z,15.55
2023-06-07T21:01:27.742Z,15.52
2023-06-07T21:03:57.223Z,15.53
2023-06-07T21:06:26.464Z,15.53
2023-06-07T21:08:56.073Z,15.52
2023-06-07T21:11:24.996Z,15.55
2023-06-07T21:13:54.396Z,15.55
2023-06-07T21:16:23.351Z,15.58
2023-06-07T21:18:52.334Z,15.59
2023-06-07T21:21:21.634Z,15.61
2023-06-07T21:23:50.516Z,15.58
2023-06-07T21:26:19.446Z,15.52
2023-06-07T21:28:48.423Z,15.46
2023-06-07T21:31:17.543Z,15.45
2023-06-07T21:34:03.011Z,15.47
2023-06-07T21:36:32.117Z,15.48
2023-06-07T21:39:01.106Z,15.55
2023-06-07T21:41:30.137Z,15.64
2023-06-07T21:43:59.127Z,15.64
2023-06-07T21:46:28.194Z,15.66
2023-06-07T21:48:57.250Z,15.70
2023-06-07T21:51:26.303Z,15.75
2023-06-07T21:53:55.324Z,15.82
2023-06-07T21:56:24.359Z,15.89
2023-06-07T21:58:53.274Z,15.95
2023-06-07T22:01:23.296Z,16.05
2023-06-07T22:03:52.601Z,16.10
2023-06-07T22:06:21.591Z,16.11
2023-06-07T22:08:50.456Z,16.15
2023-06-07T22:11:19.413Z,16.17
2023-06-07T22:13:49.330Z,16.20
2023-06-07T22:16:20.495Z,16.27
2023-06-07T22:18:50.352Z,16.32
2023-06-07T22:21:24.719Z,16.39
2023-06-07T22:23:53.644Z,16.52
2023-06-07T22:26:22.804Z,16.64
2023-06-07T22:28:52.669Z,16.73
2023-06-07T22:31:21.639Z,16.82
2023-06-07T22:33:52.291Z,16.85
2023-06-07T22:36:22.702Z,16.92
2023-06-07T22:38:51.675Z,16.93
2023-06-07T22:41:21.685Z,16.97
2023-06-07T22:43:50.646Z,16.95
2023-06-07T22:46:19.737Z,16.92
2023-06-07T22:48:48.746Z,16.94
2023-06-07T22:51:19.498Z,17.00
2023-06-07T22:53:49.514Z,17.08
2023-06-07T22:56:18.737Z,17.14
2023-06-07T22:58:47.621Z,17.26
2023-06-07T23:01:17.608Z,17.30
2023-06-07T23:03:47.203Z,17.40
2023-06-07T23:06:16.126Z,17.46
2023-06-07T23:08:45.048Z,17.45
2023-06-07T23:11:13.995Z,17.63
2023-06-07T23:13:42.850Z,17.74
2023-06-07T23:16:12.145Z,17.85
2023-06-07T23:18:41.048Z,18.00
2023-06-07T23:21:10.703Z,17.99
2023-06-07T23:23:41.311Z,18.12
2023-06-07T23:26:11.236Z,18.27
2023-06-07T23:28:40.064Z,18.42
2023-06-07T23:31:08.902Z,18.55
2023-06-07T23:33:38.533Z,18.63
2023-06-07T23:36:08.279Z,18.69
2023-06-07T23:38:37.525Z,18.73
2023-06-07T23:41:06.706Z,18.83
2023-06-07T23:43:35.734Z,18.90
2023-06-07T23:46:05.670Z,19.00
2023-06-07T23:48:34.594Z,19.09
2023-06-07T23:51:03.559Z,19.11
2023-06-07T23:53:32.765Z,19.14
2023-06-07T23:56:01.954Z,19.12
2023-06-07T23:58:31.136Z,19.13
